createdAt,value
2022-10-17T00:01:08.111Z,2.83
2022-10-17T00:03:38.456Z,3.03
2022-10-17T00:06:08.273Z,3.20
2022-10-17T00:08:38.419Z,3.57
2022-10-17T00:11:08.966Z,3.00
2022-10-17T00:13:37.246Z,3.33
2022-10-17T00:16:06.366Z,3.63
2022-10-17T00:18:34.684Z,3.90
2022-10-17T00:21:03.042Z,4.50
2022-10-17T00:23:31.335Z,3.57
2022-10-17T00:26:01.956Z,3.10
2022-10-17T00:28:30.438Z,3.60
2022-10-17T00:30:59.651Z,3.10
2022-10-17T00:33:28.487Z,3.47
2022-10-17T00:36:05.647Z,2.90
2022-10-17T00:38:34.331Z,3.07
2022-10-17T00:41:04.026Z,3.93
2022-10-17T00:43:48.092Z,3.53
2022-10-17T00:46:16.824Z,3.33
2022-10-17T00:48:47.273Z,3.50
2022-10-17T00:51:16.714Z,3.50
2022-10-17T00:53:45.200Z,5.57
2022-10-17T00:56:14.917Z,3.87
2022-10-17T00:58:45.297Z,2.97
2022-10-17T01:01:13.596Z,3.23
2022-10-17T01:03:41.823Z,5.27
2022-10-17T01:06:10.036Z,3.50
2022-10-17T01:08:38.445Z,3.30
2022-10-17T01:11:21.668Z,3.77
2022-10-17T01:13:54.317Z,3.10
2022-10-17T01:16:32.265Z,3.20
2022-10-17T01:19:09.291Z,3.67
2022-10-17T01:21:48.756Z,3.53
2022-10-17T01:24:42.489Z,3.40
2022-10-17T01:27:32.381Z,3.10
2022-10-17T01:30:27.400Z,5.20
2022-10-17T01:32:59.888Z,3.37
2022-10-17T01:35:37.764Z,3.53
2022-10-17T01:38:11.569Z,4.03
2022-10-17T01:40:46.077Z,4.33
2022-10-17T01:43:22.080Z,3.30
2022-10-17T01:45:57.509Z,3.63
2022-10-17T01:48:34.028Z,4.00
2022-10-17T01:51:06.804Z,3.73
2022-10-17T01:53:38.857Z,3.30
2022-10-17T01:56:10.607Z,3.57
2022-10-17T01:58:45.275Z,4.03
2022-10-17T02:01:14.213Z,3.90
2022-10-17T02:03:46.237Z,4.23
2022-10-17T02:06:14.347Z,3.67
2022-10-17T02:08:44.385Z,4.00
2022-10-17T02:11:16.582Z,4.30
2022-10-17T02:14:05.831Z,5.43
2022-10-17T02:16:39.999Z,3.67
2022-10-17T02:19:35.678Z,3.87
2022-10-17T02:22:17.694Z,3.87
2022-10-17T02:24:51.000Z,3.60
2022-10-17T02:27:32.946Z,4.07
2022-10-17T02:30:13.711Z,3.60
2022-10-17T02:32:50.177Z,5.30
2022-10-17T02:35:26.423Z,5.23
2022-10-17T02:37:56.261Z,4.20
2022-10-17T02:40:26.145Z,3.80
2022-10-17T02:42:55.804Z,4.57
2022-10-17T02:45:26.255Z,4.20
2022-10-17T02:48:00.363Z,4.80
2022-10-17T02:50:40.534Z,3.73
2022-10-17T02:53:13.722Z,3.30
2022-10-17T02:55:49.633Z,4.57
2022-10-17T02:58:22.315Z,4.10
2022-10-17T03:00:51.525Z,8.03
2022-10-17T03:03:22.025Z,6.27
2022-10-17T03:05:53.491Z,3.93
2022-10-17T03:08:26.205Z,3.93
2022-10-17T03:10:55.243Z,4.27
2022-10-17T03:13:24.615Z,4.33
2022-10-17T03:15:53.682Z,4.73
2022-10-17T03:18:22.764Z,4.07
2022-10-17T03:20:56.978Z,4.23
2022-10-17T03:23:25.341Z,3.80
2022-10-17T03:25:53.873Z,4.20
2022-10-17T03:28:22.080Z,3.70
2022-10-17T03:30:50.376Z,4.37
2022-10-17T03:33:18.648Z,4.17
2022-10-17T03:35:46.936Z,5.40
2022-10-17T03:38:16.608Z,4.07
2022-10-17T03:40:44.808Z,4.03
2022-10-17T03:43:13.050Z,4.60
2022-10-17T03:45:42.812Z,5.20
2022-10-17T03:48:11.075Z,3.67
2022-10-17T03:50:39.602Z,4.30
2022-10-17T03:53:07.844Z,5.73
2022-10-17T03:55:37.411Z,6.03
2022-10-17T03:58:05.623Z,4.63
2022-10-17T04:00:33.895Z,3.50
2022-10-17T04:03:02.675Z,4.10
2022-10-17T04:05:30.893Z,6.67
2022-10-17T04:08:02.392Z,39.70
2022-10-17T04:10:54.237Z,33.10
2022-10-17T04:13:22.365Z,38.40
2022-10-17T04:15:56.520Z,43.43
2022-10-17T04:18:25.085Z,28.93
2022-10-17T04:20:53.460Z,18.97
2022-10-17T04:23:22.496Z,13.30
2022-10-17T04:25:59.939Z,10.50
2022-10-17T04:28:31.058Z,9.37
2022-10-17T04:30:59.441Z,7.33
2022-10-17T04:33:33.390Z,5.93
2022-10-17T04:36:13.772Z,6.50
2022-10-17T04:38:44.208Z,4.57
2022-10-17T04:41:20.200Z,6.50
2022-10-17T04:43:51.134Z,4.07
2022-10-17T04:46:22.306Z,5.90
2022-10-17T04:48:53.193Z,3.83
2022-10-17T04:51:24.610Z,3.80
2022-10-17T04:54:12.509Z,3.53
2022-10-17T04:56:47.379Z,3.93
2022-10-17T04:59:20.096Z,3.93
2022-10-17T05:01:55.346Z,31.97
2022-10-17T05:04:25.319Z,52.50
2022-10-17T05:06:55.130Z,34.70
2022-10-17T05:09:49.848Z,28.13
2022-10-17T05:12:22.902Z,14.90
2022-10-17T05:14:52.276Z,14.17
2022-10-17T05:17:21.359Z,8.13
2022-10-17T05:19:50.120Z,6.47
2022-10-17T05:22:18.693Z,5.80
2022-10-17T05:24:47.746Z,4.70
2022-10-17T05:27:17.849Z,4.80
2022-10-17T05:29:53.097Z,4.37
2022-10-17T05:32:28.400Z,4.83
2022-10-17T05:35:05.042Z,4.40
2022-10-17T05:37:37.055Z,4.73
2022-10-17T05:40:18.888Z,4.33
2022-10-17T05:42:49.867Z,4.10
2022-10-17T05:45:29.093Z,4.80
2022-10-17T05:47:58.742Z,3.60
2022-10-17T05:50:27.858Z,4.17
2022-10-17T05:53:10.748Z,3.87
2022-10-17T05:55:44.425Z,36.00
2022-10-17T05:58:21.757Z,41.80
2022-10-17T06:01:01.243Z,28.40
2022-10-17T06:03:29.628Z,21.50
2022-10-17T06:05:58.101Z,12.50
2022-10-17T06:08:26.368Z,9.90
2022-10-17T06:10:54.747Z,7.17
2022-10-17T06:13:23.206Z,5.90
2022-10-17T06:15:53.287Z,5.70
2022-10-17T06:18:22.969Z,4.00
2022-10-17T06:20:51.507Z,4.30
2022-10-17T06:23:21.301Z,4.27
2022-10-17T06:26:01.725Z,6.30
2022-10-17T06:28:31.530Z,5.50
2022-10-17T06:30:59.931Z,3.77
2022-10-17T06:33:29.824Z,4.53
2022-10-17T06:35:58.514Z,11.97
2022-10-17T06:38:27.503Z,28.40
2022-10-17T06:41:08.163Z,38.53
2022-10-17T06:43:36.778Z,29.83
2022-10-17T06:46:29.755Z,17.43
2022-10-17T06:49:05.438Z,12.30
2022-10-17T06:51:53.741Z,10.07
2022-10-17T06:54:29.269Z,7.87
2022-10-17T06:57:09.621Z,6.10
2022-10-17T07:00:14.142Z,7.77
2022-10-17T07:02:47.540Z,4.67
2022-10-17T07:05:19.195Z,4.57
2022-10-17T07:07:50.953Z,4.20
2022-10-17T07:10:20.588Z,4.07
2022-10-17T07:12:49.337Z,3.97
2022-10-17T07:15:17.732Z,4.10
2022-10-17T07:17:50.346Z,4.07
2022-10-17T07:20:21.227Z,5.20
2022-10-17T07:22:49.674Z,4.17
2022-10-17T07:25:18.109Z,4.40
2022-10-17T07:27:52.579Z,3.60
2022-10-17T07:30:22.777Z,6.80
2022-10-17T07:33:05.076Z,5.27
2022-10-17T07:35:34.909Z,10.23
2022-10-17T07:38:03.194Z,33.70
2022-10-17T07:40:31.822Z,32.73
2022-10-17T07:43:00.025Z,25.77
2022-10-17T07:45:28.927Z,18.20
2022-10-17T07:47:58.530Z,16.50
2022-10-17T07:50:27.210Z,10.30
2022-10-17T07:52:57.960Z,10.47
2022-10-17T07:55:26.206Z,10.07
2022-10-17T07:57:54.431Z,6.07
2022-10-17T08:00:22.579Z,5.47
2022-10-17T08:02:50.965Z,6.53
2022-10-17T08:05:19.164Z,6.53
2022-10-17T08:07:47.395Z,4.70
2022-10-17T08:10:17.459Z,4.00
2022-10-17T08:12:45.761Z,4.20
2022-10-17T08:15:14.262Z,6.30
2022-10-17T08:17:42.502Z,4.43
2022-10-17T08:20:12.546Z,5.03
2022-10-17T08:22:41.010Z,4.57
2022-10-17T08:25:11.156Z,3.70
2022-10-17T08:27:40.691Z,3.43
2022-10-17T08:30:10.267Z,2.87
2022-10-17T08:32:38.556Z,3.47
2022-10-17T08:35:07.627Z,16.70
2022-10-17T08:37:36.018Z,39.13
2022-10-17T08:40:04.708Z,33.97
2022-10-17T08:42:50.304Z,23.17
2022-10-17T08:45:28.326Z,16.60
2022-10-17T08:48:00.728Z,13.30
2022-10-17T08:50:36.239Z,12.43
2022-10-17T08:53:08.378Z,8.73
2022-10-17T08:55:42.753Z,6.83
2022-10-17T08:58:19.941Z,5.40
2022-10-17T09:00:57.485Z,5.50
2022-10-17T09:03:43.094Z,5.67
2022-10-17T09:06:19.488Z,4.50
2022-10-17T09:08:58.171Z,4.43
2022-10-17T09:11:43.078Z,5.43
2022-10-17T09:14:32.323Z,4.60
2022-10-17T09:17:22.503Z,5.20
2022-10-17T09:20:10.213Z,6.30
2022-10-17T09:22:42.298Z,11.10
2022-10-17T09:25:14.520Z,5.80
2022-10-17T09:27:45.667Z,6.33
2022-10-17T09:30:50.539Z,7.10
2022-10-17T09:33:34.724Z,6.90
2022-10-17T09:36:14.157Z,6.90
2022-10-17T09:38:44.541Z,6.17
2022-10-17T09:41:43.615Z,4.27
2022-10-17T09:44:18.916Z,4.80
2022-10-17T09:47:08.551Z,3.80
2022-10-17T09:49:39.023Z,3.77
2022-10-17T09:52:11.882Z,4.33
2022-10-17T09:54:45.470Z,4.80
2022-10-17T09:57:15.814Z,5.07
2022-10-17T09:59:46.734Z,3.60
2022-10-17T10:02:22.462Z,3.43
2022-10-17T10:05:04.082Z,4.27
2022-10-17T10:07:34.469Z,3.30
2022-10-17T10:10:04.062Z,4.10
2022-10-17T10:12:34.312Z,5.80
2022-10-17T10:15:03.095Z,3.87
2022-10-17T10:17:41.835Z,3.23
2022-10-17T10:20:33.153Z,2.70
2022-10-17T10:23:24.358Z,2.53
2022-10-17T10:25:57.865Z,2.80
2022-10-17T10:28:29.679Z,2.80
2022-10-17T10:30:59.863Z,10.53
2022-10-17T10:33:31.713Z,28.33
2022-10-17T10:36:03.394Z,39.03
2022-10-17T10:38:34.191Z,32.10
2022-10-17T10:41:07.388Z,24.93
2022-10-17T10:43:38.769Z,21.83
2022-10-17T10:46:18.583Z,17.50
2022-10-17T10:48:58.467Z,17.17
2022-10-17T10:51:32.537Z,13.23
2022-10-17T10:54:04.186Z,13.30
2022-10-17T10:56:36.732Z,11.27
2022-10-17T10:59:11.626Z,8.07
2022-10-17T11:01:47.953Z,7.43
2022-10-17T11:04:27.042Z,7.50
2022-10-17T11:07:02.116Z,6.30
2022-10-17T11:09:41.340Z,5.70
2022-10-17T11:12:18.265Z,5.20
2022-10-17T11:14:50.930Z,4.57
2022-10-17T11:17:30.511Z,4.30
2022-10-17T11:20:12.345Z,3.77
2022-10-17T11:22:45.392Z,3.40
2022-10-17T11:25:28.889Z,3.57
2022-10-17T11:27:59.808Z,3.27
2022-10-17T11:33:21.251Z,5.73
2022-10-17T11:35:54.275Z,3.00
2022-10-17T11:38:30.725Z,3.50
2022-10-17T11:41:01.000Z,3.43
2022-10-17T11:43:33.389Z,3.27
2022-10-17T11:46:19.889Z,3.53
2022-10-17T11:49:05.906Z,3.80
2022-10-17T11:52:00.779Z,3.50
2022-10-17T11:54:34.615Z,4.97
2022-10-17T11:57:15.820Z,3.27
2022-10-17T12:00:07.319Z,4.13
2022-10-17T12:02:43.130Z,3.37
2022-10-17T12:05:23.030Z,3.30
2022-10-17T12:07:57.412Z,2.60
2022-10-17T12:10:46.174Z,3.60
2022-10-17T12:13:57.412Z,3.30
2022-10-17T12:16:46.549Z,4.03
2022-10-17T12:19:28.862Z,3.53
2022-10-17T12:21:59.244Z,3.90
2022-10-17T12:24:44.474Z,3.90
2022-10-17T12:27:42.331Z,13.20
2022-10-17T12:30:28.153Z,20.97
2022-10-17T12:33:07.719Z,17.90
2022-10-17T12:35:38.290Z,14.77
2022-10-17T12:38:28.896Z,13.97
2022-10-17T12:41:00.300Z,11.53
2022-10-17T12:43:58.824Z,9.53
2022-10-17T12:46:58.262Z,9.90
2022-10-17T12:49:43.804Z,11.20
2022-10-17T12:52:48.640Z,7.30
2022-10-17T12:55:19.355Z,6.37
2022-10-17T12:57:56.790Z,4.80
2022-10-17T13:00:32.450Z,4.57
2022-10-17T13:03:14.090Z,3.83
2022-10-17T13:05:46.835Z,4.97
2022-10-17T13:08:21.093Z,5.83
2022-10-17T13:10:52.601Z,3.80
2022-10-17T13:13:25.446Z,5.20
2022-10-17T13:15:55.734Z,3.40
2022-10-17T13:18:25.451Z,5.30
2022-10-17T13:20:59.434Z,4.30
2022-10-17T13:23:31.630Z,3.30
2022-10-17T13:26:13.673Z,4.50
2022-10-17T13:28:43.433Z,5.37
2022-10-17T13:31:29.823Z,3.83
2022-10-17T13:33:59.525Z,6.80
2022-10-17T13:36:29.477Z,3.00
2022-10-17T13:38:59.842Z,4.93
2022-10-17T13:41:37.400Z,3.43
2022-10-17T13:44:16.080Z,3.43
2022-10-17T13:46:44.930Z,5.90
2022-10-17T13:49:22.286Z,3.00
2022-10-17T13:51:55.142Z,3.00
2022-10-17T13:54:36.629Z,4.43
2022-10-17T13:57:06.289Z,3.80
2022-10-17T13:59:40.130Z,3.07
2022-10-17T14:02:15.901Z,10.20
2022-10-17T14:05:14.999Z,21.50
2022-10-17T14:08:05.813Z,13.73
2022-10-17T14:10:31.168Z,8.03
2022-10-17T14:13:00.187Z,5.63
2022-10-17T14:15:32.142Z,4.60
2022-10-17T14:18:06.730Z,4.03
2022-10-17T14:23:32.423Z,5.33
2022-10-17T14:26:13.040Z,6.70
2022-10-17T14:28:43.309Z,7.90
2022-10-17T14:31:27.530Z,5.30
2022-10-17T14:33:55.900Z,4.10
2022-10-17T14:36:38.579Z,3.83
2022-10-17T14:39:12.033Z,3.90
2022-10-17T14:41:46.553Z,2.80
2022-10-17T14:44:22.934Z,4.43
2022-10-17T14:46:59.254Z,32.40
2022-10-17T14:49:34.104Z,27.60
2022-10-17T14:52:30.363Z,18.67
2022-10-17T14:55:00.831Z,12.13
2022-10-17T14:57:43.758Z,9.30
2022-10-17T15:00:16.112Z,9.13
2022-10-17T15:02:46.983Z,7.03
2022-10-17T15:05:16.183Z,5.60
2022-10-17T15:07:44.730Z,5.03
2022-10-17T15:10:31.731Z,5.10
2022-10-17T15:13:26.262Z,3.43
2022-10-17T15:15:52.388Z,3.47
2022-10-17T15:18:22.350Z,3.40
2022-10-17T15:20:59.477Z,3.13
2022-10-17T15:23:33.626Z,3.10
2022-10-17T15:26:02.333Z,4.77
2022-10-17T15:28:30.547Z,3.70
2022-10-17T15:30:58.769Z,5.50
2022-10-17T15:33:28.303Z,3.10
2022-10-17T15:35:59.356Z,7.83
2022-10-17T15:38:28.105Z,24.37
2022-10-17T15:40:56.697Z,19.53
2022-10-17T15:43:24.991Z,14.93
2022-10-17T15:45:53.772Z,15.43
2022-10-17T15:48:28.559Z,9.93
2022-10-17T15:50:58.516Z,7.07
2022-10-17T15:53:27.080Z,7.60
2022-10-17T15:55:55.323Z,4.80
2022-10-17T15:58:23.640Z,5.10
2022-10-17T16:00:52.046Z,5.60
2022-10-17T16:05:53.916Z,9.17
2022-10-17T16:08:23.655Z,3.80
2022-10-17T16:10:52.470Z,6.60
2022-10-17T16:13:23.370Z,7.53
2022-10-17T16:15:51.684Z,3.43
2022-10-17T16:18:21.111Z,3.53
2022-10-17T16:20:49.916Z,3.60
2022-10-17T16:23:18.230Z,4.17
2022-10-17T16:25:47.753Z,3.10
2022-10-17T16:28:15.943Z,2.83
2022-10-17T16:30:46.162Z,2.33
2022-10-17T16:33:14.387Z,3.23
2022-10-17T16:35:42.886Z,2.90
2022-10-17T16:38:10.988Z,2.83
2022-10-17T16:40:40.195Z,2.60
2022-10-17T16:43:12.975Z,2.80
2022-10-17T16:45:42.076Z,2.50
2022-10-17T16:48:12.187Z,2.90
2022-10-17T16:50:41.320Z,2.50
2022-10-17T16:53:09.590Z,2.03
2022-10-17T16:55:37.802Z,2.87
2022-10-17T16:58:06.076Z,2.27
2022-10-17T17:00:35.673Z,2.00
2022-10-17T17:03:04.144Z,4.50
2022-10-17T17:05:32.292Z,3.43
2022-10-17T17:08:01.000Z,2.40
2022-10-17T17:10:29.576Z,8.60
2022-10-17T17:12:57.996Z,2.70
2022-10-17T17:15:26.451Z,4.67
2022-10-17T17:17:56.684Z,61.47
2022-10-17T17:20:25.578Z,118.10
2022-10-17T17:22:54.453Z,65.33
2022-10-17T17:25:23.661Z,45.60
2022-10-17T17:27:52.012Z,30.80
2022-10-17T17:30:20.268Z,19.70
2022-10-17T17:32:48.577Z,18.57
2022-10-17T17:35:18.517Z,9.87
2022-10-17T17:37:46.719Z,8.80
2022-10-17T17:40:15.172Z,6.50
2022-10-17T17:42:43.734Z,7.57
2022-10-17T17:45:12.530Z,4.40
2022-10-17T17:47:40.723Z,3.30
2022-10-17T17:50:09.513Z,4.53
2022-10-17T17:52:41.891Z,4.80
2022-10-17T17:55:10.747Z,3.33
2022-10-17T17:57:39.247Z,3.67
2022-10-17T18:00:09.102Z,4.13
2022-10-17T18:02:39.606Z,3.40
2022-10-17T18:05:10.487Z,2.83
2022-10-17T18:07:40.107Z,4.53
2022-10-17T18:12:38.013Z,3.03
2022-10-17T18:15:07.227Z,5.17
2022-10-17T18:17:35.745Z,2.97
2022-10-17T18:20:04.083Z,2.70
2022-10-17T18:22:32.581Z,2.87
2022-10-17T18:25:02.327Z,3.07
2022-10-17T18:27:30.660Z,3.53
2022-10-17T18:29:58.970Z,3.97
2022-10-17T18:32:27.310Z,3.10
2022-10-17T18:34:55.590Z,2.50
2022-10-17T18:37:23.754Z,2.23
2022-10-17T18:39:54.052Z,3.03
2022-10-17T18:42:23.614Z,4.77
2022-10-17T18:44:51.739Z,3.43
2022-10-17T18:47:19.885Z,2.37
2022-10-17T18:49:48.605Z,2.67
2022-10-17T18:52:16.887Z,2.70
2022-10-17T18:54:45.068Z,2.63
2022-10-17T18:57:13.212Z,31.13
2022-10-17T18:59:42.761Z,25.17
2022-10-17T19:02:13.471Z,19.63
2022-10-17T19:04:41.647Z,11.50
2022-10-17T19:07:11.011Z,10.37
2022-10-17T19:09:39.245Z,6.47
2022-10-17T19:12:07.366Z,7.60
2022-10-17T19:14:35.694Z,5.37
2022-10-17T19:17:05.454Z,4.47
2022-10-17T19:19:33.820Z,4.93
2022-10-17T19:22:03.450Z,5.77
2022-10-17T19:24:31.972Z,3.90
2022-10-17T19:27:02.685Z,4.47
2022-10-17T19:29:32.989Z,4.40
2022-10-17T19:32:02.665Z,3.97
2022-10-17T19:34:32.379Z,3.70
2022-10-17T19:37:01.019Z,4.10
2022-10-17T19:39:30.561Z,3.53
2022-10-17T19:42:05.843Z,5.37
2022-10-17T19:44:35.910Z,4.47
2022-10-17T19:47:04.586Z,4.53
2022-10-17T19:49:36.035Z,3.30
2022-10-17T19:52:04.943Z,3.77
2022-10-17T19:54:36.680Z,3.77
2022-10-17T19:57:10.511Z,3.10
2022-10-17T19:59:39.571Z,4.50
2022-10-17T20:02:08.099Z,6.00
2022-10-17T20:04:49.488Z,7.17
2022-10-17T20:07:28.812Z,3.40
2022-10-17T20:09:57.653Z,2.53
2022-10-17T20:12:27.413Z,6.60
2022-10-17T20:14:56.167Z,3.57
2022-10-17T20:17:24.941Z,3.40
2022-10-17T20:19:55.605Z,4.30
2022-10-17T20:22:27.099Z,4.03
2022-10-17T20:24:55.586Z,3.73
2022-10-17T20:27:27.566Z,2.97
2022-10-17T20:30:01.781Z,3.80
2022-10-17T20:32:32.254Z,3.30
2022-10-17T20:35:02.414Z,4.30
2022-10-17T20:37:30.854Z,3.40
2022-10-17T20:40:22.802Z,3.10
2022-10-17T20:42:47.500Z,5.73
2022-10-17T20:45:15.670Z,2.40
2022-10-17T20:47:48.118Z,3.00
2022-10-17T20:50:20.157Z,3.07
2022-10-17T20:52:48.296Z,4.50
2022-10-17T20:55:16.706Z,3.10
2022-10-17T20:57:44.839Z,3.50
2022-10-17T21:00:14.110Z,3.37
2022-10-17T21:02:42.272Z,6.47
2022-10-17T21:05:10.712Z,4.67
2022-10-17T21:07:40.271Z,3.30
2022-10-17T21:10:30.607Z,3.20
2022-10-17T21:13:23.238Z,2.50
2022-10-17T21:15:51.588Z,2.67
2022-10-17T21:18:19.821Z,7.67
2022-10-17T21:20:48.115Z,3.23
2022-10-17T21:23:17.677Z,2.43
2022-10-17T21:25:45.861Z,1.93
2022-10-17T21:28:14.096Z,2.80
2022-10-17T21:30:42.284Z,3.20
2022-10-17T21:33:10.356Z,1.90
2022-10-17T21:35:38.509Z,2.57
2022-10-17T21:38:06.722Z,2.00
2022-10-17T21:40:36.361Z,1.93
2022-10-17T21:43:05.594Z,1.97
2022-10-17T21:45:36.989Z,2.90
2022-10-17T21:48:13.330Z,1.37
2022-10-17T21:50:42.221Z,1.60
2022-10-17T21:53:10.584Z,2.10
2022-10-17T21:55:40.124Z,3.70
2022-10-17T21:58:08.447Z,2.13
2022-10-17T22:00:36.573Z,1.70
2022-10-17T22:03:05.905Z,1.90
2022-10-17T22:05:34.381Z,1.80
2022-10-17T22:08:02.917Z,2.13
2022-10-17T22:10:31.457Z,2.50
2022-10-17T22:13:00.918Z,1.80
2022-10-17T22:15:29.164Z,1.80
2022-10-17T22:17:57.447Z,3.13
2022-10-17T22:20:25.610Z,1.93
2022-10-17T22:22:53.898Z,1.67
2022-10-17T22:25:22.100Z,1.60
2022-10-17T22:27:50.264Z,1.30
2022-10-17T22:30:19.837Z,1.53
2022-10-17T22:32:48.045Z,1.80
2022-10-17T22:35:16.577Z,1.57
2022-10-17T22:37:44.680Z,3.00
2022-10-17T22:40:13.425Z,2.20
2022-10-17T22:42:41.842Z,1.67
2022-10-17T22:45:10.793Z,1.40
2022-10-17T22:47:40.337Z,2.27
2022-10-17T22:50:09.144Z,4.20
2022-10-17T22:52:37.424Z,1.87
2022-10-17T22:55:06.209Z,1.93
2022-10-17T22:57:34.513Z,1.83
2022-10-17T23:00:02.899Z,1.97
2022-10-17T23:02:32.204Z,1.60
2022-10-17T23:05:01.932Z,1.60
2022-10-17T23:07:30.172Z,2.30
2022-10-17T23:09:58.403Z,1.50
2022-10-17T23:12:26.738Z,1.63
2022-10-17T23:14:54.851Z,2.17
2022-10-17T23:17:23.202Z,1.70
2022-10-17T23:19:53.026Z,1.80
2022-10-17T23:22:25.134Z,1.60
2022-10-17T23:24:53.493Z,1.60
2022-10-17T23:27:21.673Z,1.70
2022-10-17T23:29:49.838Z,1.80
2022-10-17T23:32:20.532Z,1.57
2022-10-17T23:34:48.629Z,1.67
2022-10-17T23:37:16.842Z,3.07
2022-10-17T23:39:46.365Z,1.70
2022-10-17T23:42:14.520Z,2.90
2022-10-17T23:44:42.699Z,1.40
2022-10-17T23:47:10.898Z,2.37
2022-10-17T23:49:39.461Z,1.93
2022-10-17T23:52:07.602Z,2.17
2022-10-17T23:54:36.019Z,1.67
2022-10-17T23:57:05.787Z,1.70
2022-10-17T23:59:33.909Z,1.73
